Time;durP1;ratioP1;P1;durP2;ratioP2;P2;SDS_P1;SDS_P2;PMS_P1;PMS_P2;Temp;Humidity;BMP_temperature;BMP_pressure;BME280_temperature;BME280_humidity;BME280_pressure;Samples;Min_cycle;Max_cycle;Signal;HPM_P1;HPM_P2
2022/09/05 00:02:01;;;;;;;9.48;5.78;;;;;;;15.50;84.71;101795.66;5014272;28;20030;-72
2022/09/05 00:04:37;;;;;;;11.07;5.93;;;;;;;15.50;85.52;101799.28;5023934;28;20033;-71
2022/09/05 00:07:28;;;;;;;7.60;5.57;;;;;;;15.52;86.22;101797.13;5024489;28;20025;-72
2022/09/05 00:10:16;;;;;;;9.60;5.75;;;;;;;15.53;84.79;101776.66;5023424;28;20036;-71
2022/09/05 00:12:43;;;;;;;10.60;6.07;;;;;;;15.47;85.66;101793.41;5022591;28;20477;-71
2022/09/05 00:15:34;;;;;;;10.30;5.25;;;;;;;15.39;85.08;101790.97;5022986;28;20029;-71
2022/09/05 00:18:19;;;;;;;9.68;5.53;;;;;;;15.43;85.95;101795.78;5014411;28;20041;-72
2022/09/05 00:20:50;;;;;;;10.43;6.03;;;;;;;15.47;85.85;101790.63;5014839;28;20137;-72
2022/09/05 00:23:25;;;;;;;9.07;5.75;;;;;;;15.48;85.80;101789.53;5019023;28;20052;-72
2022/09/05 00:26:11;;;;;;;11.43;6.03;;;;;;;15.55;85.51;101785.56;5023080;28;20029;-66
2022/09/05 00:28:55;;;;;;;8.85;5.78;;;;;;;15.55;85.72;101782.78;5023076;28;20488;-72
2022/09/05 00:31:43;;;;;;;9.00;6.28;;;;;;;15.57;85.47;101786.16;5023927;28;20127;-72
2022/09/05 00:34:43;;;;;;;9.40;6.20;;;;;;;15.62;84.52;101790.16;5022498;28;20030;-72
2022/09/05 00:37:10;;;;;;;11.00;5.72;;;;;;;15.41;85.12;101786.03;5006997;28;20041;-73
2022/09/05 00:39:41;;;;;;;8.93;5.65;;;;;;;15.30;84.36;101787.72;5004537;28;20396;-71
2022/09/05 00:42:14;;;;;;;9.02;5.28;;;;;;;15.19;84.18;101785.78;5004855;28;20511;-72
2022/09/05 00:45:22;;;;;;;9.93;5.80;;;;;;;15.22;83.79;101790.84;5009718;28;20425;-72
2022/09/05 00:47:55;;;;;;;;;;;;;;;15.31;82.18;101790.25;4975695;28;20150;-72
2022/09/05 00:50:50;;;;;;;9.68;6.45;;;;;;;15.20;84.92;101787.44;5011113;28;19956;-72
2022/09/05 00:53:35;;;;;;;10.18;6.30;;;;;;;15.26;84.96;101783.75;4950310;28;20473;-72
2022/09/05 00:56:42;;;;;;;9.95;6.30;;;;;;;15.26;85.22;101786.53;5004418;28;20041;-72
2022/09/05 00:59:41;;;;;;;11.73;6.10;;;;;;;15.23;84.56;101778.69;5004974;28;20550;-72
2022/09/05 01:03:01;;;;;;;10.93;5.82;;;;;;;15.17;83.78;101779.66;5022357;28;20392;-72
2022/09/05 01:05:54;;;;;;;9.77;5.72;;;;;;;15.07;84.44;101777.47;4921682;29;20503;-72
2022/09/05 01:08:25;;;;;;;10.13;6.45;;;;;;;14.98;84.72;101776.97;5023093;28;20064;-72
2022/09/05 01:11:09;;;;;;;11.27;6.65;;;;;;;14.95;84.79;101774.69;5021615;28;20396;-71
2022/09/05 01:14:04;;;;;;;11.35;6.55;;;;;;;14.91;84.70;101776.22;5007789;28;20132;-72
2022/09/05 01:17:07;;;;;;;13.55;8.07;;;;;;;14.95;85.50;101782.13;5011047;28;20127;-72
2022/09/05 01:20:27;;;;;;;10.80;8.18;;;;;;;14.96;86.27;101781.06;5018796;28;20067;-72
2022/09/05 01:23:08;;;;;;;13.10;7.68;;;;;;;14.96;85.87;101784.66;4979813;28;20045;-72
2022/09/05 01:25:49;;;;;;;15.27;10.75;;;;;;;14.96;86.93;101781.91;5020384;28;20065;-72
2022/09/05 01:28:39;;;;;;;13.27;9.02;;;;;;;15.00;87.09;101777.59;5023341;28;20026;-72
2022/09/05 01:31:21;;;;;;;12.02;7.65;;;;;;;14.98;86.69;101774.19;5007190;28;20057;-72
2022/09/05 01:33:52;;;;;;;14.13;9.98;;;;;;;15.01;86.83;101784.78;5022790;28;20721;-72
2022/09/05 01:36:49;;;;;;;13.73;11.25;;;;;;;15.10;86.84;101779.72;5023001;28;20492;-72
2022/09/05 01:39:36;;;;;;;11.88;8.85;;;;;;;15.09;85.79;101778.06;5022459;28;20133;-72
2022/09/05 01:42:15;;;;;;;10.43;7.60;;;;;;;14.97;85.87;101775.28;5021929;28;20025;-72
2022/09/05 01:45:08;;;;;;;17.10;11.63;;;;;;;15.05;86.46;101780.47;5023116;28;20029;-72
2022/09/05 01:47:43;;;;;;;13.35;11.55;;;;;;;15.04;86.67;101767.69;5013238;28;20063;-72
2022/09/05 01:50:26;;;;;;;11.77;8.93;;;;;;;15.05;86.53;101774.06;5007838;28;20144;-72
2022/09/05 01:53:13;;;;;;;11.90;7.90;;;;;;;14.98;85.07;101774.19;5021224;28;20037;-71
2022/09/05 01:56:06;;;;;;;12.85;8.43;;;;;;;14.99;85.02;101775.88;5017791;28;20535;-72
2022/09/05 01:58:53;;;;;;;12.20;8.50;;;;;;;15.01;84.78;101775.66;5022440;28;20120;-72
2022/09/05 02:01:27;;;;;;;21.60;14.85;;;;;;;14.99;86.46;101778.63;5022542;28;20120;-72
2022/09/05 02:04:20;;;;;;;10.68;7.57;;;;;;;14.95;85.39;101769.16;5021648;28;20615;-72
2022/09/05 02:06:55;;;;;;;10.25;7.32;;;;;;;14.91;84.50;101772.63;5021259;28;20808;-72
2022/09/05 02:09:49;;;;;;;11.35;7.68;;;;;;;14.87;84.60;101772.25;5022987;28;20042;-71
2022/09/05 02:12:14;;;;;;;13.25;8.25;;;;;;;14.81;84.68;101772.38;5021707;28;20029;-72
2022/09/05 02:14:44;;;;;;;10.57;8.17;;;;;;;14.75;84.82;101774.13;5023197;28;20245;-71
2022/09/05 02:17:36;;;;;;;10.68;7.72;;;;;;;14.72;84.08;101769.91;5006933;28;20042;-71
2022/09/05 02:20:34;;;;;;;9.57;7.00;;;;;;;14.71;83.95;101776.53;5021297;28;20029;-71
2022/09/05 02:23:14;;;;;;;15.25;13.25;;;;;;;14.69;86.15;101769.53;5010859;28;20129;-72
2022/09/05 02:25:45;;;;;;;18.70;14.30;;;;;;;14.69;86.58;101775.91;5020279;28;20559;-72
2022/09/05 02:28:19;;;;;;;17.67;14.48;;;;;;;14.71;86.99;101776.53;5022507;28;20536;-71
2022/09/05 02:30:52;;;;;;;12.40;9.00;;;;;;;14.69;86.20;101772.31;5021722;28;20531;-72
2022/09/05 02:33:31;;;;;;;14.30;11.50;;;;;;;14.71;86.55;101784.84;5022481;28;20688;-72
2022/09/05 02:36:38;;;;;;;14.65;10.98;;;;;;;14.73;85.73;101785.44;5020810;28;20543;-72
2022/09/05 02:39:08;;;;;;;18.95;16.45;;;;;;;14.71;87.24;101784.00;5025321;28;20060;-72
2022/09/05 02:41:40;;;;;;;22.25;16.88;;;;;;;14.73;87.57;101782.66;5025069;28;20030;-72
2022/09/05 02:44:51;;;;;;;20.50;17.27;;;;;;;14.80;86.88;101782.59;5025756;28;20023;-71
2022/09/05 02:47:21;;;;;;;22.70;17.58;;;;;;;14.74;87.43;101786.25;4977882;28;20558;-72
2022/09/05 02:50:16;;;;;;;24.08;19.08;;;;;;;14.76;87.72;101792.44;5026662;28;20041;-72
2022/09/05 02:52:42;;;;;;;20.95;17.90;;;;;;;14.76;87.58;101782.19;5025452;28;20054;-71
2022/09/05 02:55:24;;;;;;;17.63;13.27;;;;;;;14.75;87.07;101779.66;5024673;28;20395;-71
2022/09/05 02:58:19;;;;;;;15.25;11.63;;;;;;;14.75;85.70;101785.19;5025569;28;20025;-72
2022/09/05 03:01:10;;;;;;;13.15;11.20;;;;;;;14.64;85.39;101788.75;5023707;28;20025;-71
2022/09/05 03:03:47;;;;;;;14.10;11.57;;;;;;;14.54;85.65;101790.16;5012700;28;20030;-72
2022/09/05 03:06:31;;;;;;;18.55;15.43;;;;;;;14.56;87.31;101787.19;5005614;28;20034;-71
2022/09/05 03:09:10;;;;;;;19.42;15.65;;;;;;;14.57;87.30;101777.81;5005831;28;20050;-72
2022/09/05 03:11:51;;;;;;;15.07;11.80;;;;;;;14.58;86.42;101785.00;5004865;28;20018;-71
2022/09/05 03:14:35;;;;;;;15.40;12.27;;;;;;;14.59;87.28;101780.31;5012198;28;20038;-71
2022/09/05 03:17:30;;;;;;;14.45;11.02;;;;;;;14.53;85.73;101780.19;5023953;28;20044;-71
2022/09/05 03:20:07;;;;;;;14.38;12.85;;;;;;;14.46;86.50;101786.88;5025491;28;20514;-71
2022/09/05 03:22:43;;;;;;;12.37;10.47;;;;;;;14.43;85.60;101779.88;5025473;28;20029;-71
2022/09/05 03:25:37;;;;;;;15.38;11.35;;;;;;;14.37;85.05;101782.72;5023908;28;20070;-71
2022/09/05 03:28:59;;;;;;;15.55;11.88;;;;;;;14.39;85.61;101784.16;5023831;28;20431;-71
2022/09/05 03:31:52;;;;;;;15.43;10.98;;;;;;;14.34;85.40;101789.56;5015469;28;20116;-72
2022/09/05 03:34:44;;;;;;;18.67;14.02;;;;;;;14.28;86.88;101784.97;5010452;28;20532;-72
2022/09/05 03:37:18;;;;;;;16.55;12.13;;;;;;;14.22;85.99;101789.50;5022459;28;20322;-72
2022/09/05 03:40:21;;;;;;;18.58;15.32;;;;;;;14.26;86.99;101785.22;5025131;28;20066;-71
2022/09/05 03:43:08;;;;;;;15.32;12.73;;;;;;;14.25;86.21;101790.97;5021908;28;20448;-71
2022/09/05 03:46:10;;;;;;;19.38;13.52;;;;;;;14.20;85.56;101788.91;5021676;28;20045;-71
2022/09/05 03:49:05;;;;;;;18.98;13.25;;;;;;;14.14;85.73;101786.19;5001246;28;20033;-72
2022/09/05 03:51:41;;;;;;;17.80;13.40;;;;;;;14.08;85.52;101784.38;5005035;28;20192;-71
2022/09/05 03:54:28;;;;;;;17.55;13.68;;;;;;;13.95;84.98;101772.41;5004954;28;20452;-71
2022/09/05 03:57:17;;;;;;;18.55;14.65;;;;;;;13.91;85.16;101784.16;5020344;28;20034;-71
2022/09/05 04:00:06;;;;;;;18.63;14.48;;;;;;;13.87;85.70;101774.63;5024365;28;20025;-71
2022/09/05 04:02:53;;;;;;;21.65;16.60;;;;;;;13.74;86.08;101782.00;5015580;28;20045;-72
2022/09/05 04:05:24;;;;;;;21.77;18.08;;;;;;;13.71;87.61;101790.72;5012782;28;20025;-72
2022/09/05 04:08:06;;;;;;;24.17;21.23;;;;;;;13.77;89.25;101783.44;5024483;28;20538;-72
2022/09/05 04:10:39;;;;;;;27.55;21.65;;;;;;;13.85;90.46;101791.44;5022676;28;20061;-71
2022/09/05 04:13:16;;;;;;;25.80;21.95;;;;;;;13.91;90.92;101779.47;5024071;28;20054;-72
2022/09/05 04:15:46;;;;;;;26.83;23.20;;;;;;;13.97;91.06;101780.47;5023048;28;20029;-73
2022/09/05 04:18:17;;;;;;;22.65;18.48;;;;;;;13.92;89.55;101783.91;5022875;28;20480;-72
2022/09/05 04:21:11;;;;;;;26.42;19.45;;;;;;;13.94;89.64;101790.06;5023910;28;20029;-72
2022/09/05 04:23:58;;;;;;;24.13;19.13;;;;;;;13.94;88.90;101798.34;5013044;28;20045;-72
2022/09/05 04:27:14;;;;;;;28.52;22.25;;;;;;;14.01;89.23;101793.59;5022583;28;20037;-72
2022/09/05 04:29:58;;;;;;;23.10;19.33;;;;;;;13.95;89.07;101791.75;4945663;28;20031;-72
2022/09/05 04:32:49;;;;;;;24.35;18.63;;;;;;;13.94;88.56;101795.59;4943396;28;20031;-72
2022/09/05 04:35:32;;;;;;;23.75;19.00;;;;;;;13.87;88.47;101796.72;5010825;28;20592;-73
2022/09/05 04:38:11;;;;;;;26.38;21.58;;;;;;;13.88;90.16;101792.88;5023430;28;20029;-72
2022/09/05 04:40:50;;;;;;;21.42;17.90;;;;;;;13.83;88.50;101793.56;5022355;28;20396;-72
2022/09/05 04:43:26;;;;;;;27.35;17.98;;;;;;;13.73;87.99;101784.97;5024057;28;20067;-72
2022/09/05 04:45:58;;;;;;;22.30;17.42;;;;;;;13.54;87.31;101794.34;5023107;28;20017;-72
2022/09/05 04:48:35;;;;;;;25.00;19.10;;;;;;;13.52;88.50;101794.53;5023282;28;20022;-72
2022/09/05 04:51:06;;;;;;;24.25;19.10;;;;;;;13.46;88.50;101790.78;5022534;28;20025;-72
2022/09/05 04:53:40;;;;;;;32.35;20.20;;;;;;;13.47;89.34;101803.50;5023289;28;20622;-72
2022/09/05 04:56:18;;;;;;;27.98;20.23;;;;;;;13.45;89.52;101805.66;5021077;28;20056;-73
2022/09/05 04:59:00;;;;;;;26.75;19.98;;;;;;;13.45;89.48;101802.03;5022865;28;20064;-72
2022/09/05 05:01:32;;;;;;;26.20;20.23;;;;;;;13.43;89.31;101796.75;5022678;28;20029;-72
2022/09/05 05:04:06;;;;;;;31.95;22.75;;;;;;;13.45;90.23;101800.13;5022747;28;20033;-72
2022/09/05 05:06:38;;;;;;;29.38;21.60;;;;;;;13.45;90.24;101804.81;5023016;28;20505;-72
2022/09/05 05:09:28;;;;;;;28.90;21.40;;;;;;;13.54;90.21;101802.59;5022666;28;20553;-72
2022/09/05 05:12:03;;;;;;;32.53;23.48;;;;;;;13.54;90.87;101803.44;5021242;28;20025;-72
2022/09/05 05:14:45;;;;;;;28.05;20.35;;;;;;;13.55;89.86;101802.38;5023144;28;20029;-72
2022/09/05 05:17:29;;;;;;;28.45;20.85;;;;;;;13.52;89.24;101808.34;5022248;28;20088;-72
2022/09/05 05:20:19;;;;;;;26.80;20.23;;;;;;;13.47;88.47;101811.78;5022565;28;20025;-73
2022/09/05 05:23:04;;;;;;;23.75;18.83;;;;;;;13.44;88.59;101811.41;5022589;28;20045;-72
2022/09/05 05:25:46;;;;;;;28.60;22.20;;;;;;;13.42;89.72;101813.53;5021615;28;20021;-72
2022/09/05 05:28:19;;;;;;;35.30;24.30;;;;;;;13.47;91.36;101830.25;5022638;28;20037;-72
2022/09/05 05:30:44;;;;;;;30.50;24.00;;;;;;;13.66;91.75;101814.59;5022682;28;20447;-72
2022/09/05 05:33:33;;;;;;;31.35;23.70;;;;;;;13.76;91.92;101820.41;5022152;28;20037;-72
2022/09/05 05:36:00;;;;;;;29.73;22.02;;;;;;;13.83;91.72;101818.41;5022108;28;20549;-72
2022/09/05 05:38:38;;;;;;;32.00;23.30;;;;;;;13.88;91.39;101818.59;5022548;28;20172;-72
2022/09/05 05:41:36;;;;;;;30.02;22.92;;;;;;;13.93;91.32;101812.38;5021117;28;20594;-72
2022/09/05 05:44:11;;;;;;;30.65;24.08;;;;;;;13.99;91.02;101814.25;5011526;28;20029;-73
2022/09/05 05:46:40;;;;;;;30.10;23.00;;;;;;;13.99;91.22;101815.09;5022466;28;20583;-72
2022/09/05 05:49:39;;;;;;;30.58;23.55;;;;;;;14.03;90.96;101816.28;5022117;28;20029;-73
2022/09/05 05:52:32;;;;;;;37.88;23.88;;;;;;;14.03;91.07;101824.56;5022304;28;20033;-72
2022/09/05 05:55:04;;;;;;;30.65;22.90;;;;;;;14.09;90.71;101824.72;4980568;28;20037;-72
2022/09/05 05:57:51;;;;;;;32.03;23.13;;;;;;;14.18;90.54;101828.88;5021913;28;20112;-73
2022/09/05 06:00:21;;;;;;;35.08;25.13;;;;;;;14.23;91.45;101826.25;5022706;28;20029;-72
2022/09/05 06:03:17;;;;;;;39.58;25.67;;;;;;;14.31;91.25;101831.50;5006845;28;20396;-73
2022/09/05 06:06:07;;;;;;;42.53;28.48;;;;;;;14.43;91.83;101828.78;5002826;28;20076;-73
2022/09/05 06:08:49;;;;;;;50.53;31.20;;;;;;;14.50;91.74;101833.19;5002500;28;20057;-72
2022/09/05 06:11:22;;;;;;;44.75;31.50;;;;;;;14.64;91.64;101833.00;5016426;28;20482;-73
2022/09/05 06:14:07;;;;;;;46.72;30.52;;;;;;;14.71;90.64;101839.28;5025341;28;20061;-72
2022/09/05 06:16:55;;;;;;;43.53;30.20;;;;;;;14.78;91.00;101849.16;5025675;28;20546;-71
2022/09/05 06:19:51;;;;;;;41.75;29.30;;;;;;;14.92;90.03;101836.00;5026080;28;20131;-73
2022/09/05 06:22:24;;;;;;;50.70;32.78;;;;;;;15.03;90.52;101846.25;5026353;28;20106;-73
2022/09/05 06:25:08;;;;;;;45.25;33.72;;;;;;;15.17;90.05;101851.59;5007711;28;20100;-69
2022/09/05 06:27:46;;;;;;;48.70;35.00;;;;;;;15.31;89.57;101850.31;5025700;28;20056;-73
2022/09/05 06:30:18;;;;;;;53.50;35.50;;;;;;;15.39;90.26;101847.19;5025356;28;20437;-72
2022/09/05 06:33:20;;;;;;;55.95;35.13;;;;;;;15.53;89.12;101848.66;5026060;28;20276;-72
2022/09/05 06:35:51;;;;;;;48.83;35.70;;;;;;;15.67;89.27;101849.28;5026143;28;20685;-73
2022/09/05 06:38:28;;;;;;;53.35;35.80;;;;;;;15.80;88.31;101849.03;5026192;28;20033;-72
2022/09/05 06:41:16;;;;;;;51.53;36.38;;;;;;;15.93;87.85;101847.97;5023840;28;20095;-73
2022/09/05 06:44:05;;;;;;;59.97;36.22;;;;;;;16.09;87.50;101850.00;5025552;28;20360;-72
2022/09/05 06:46:34;;;;;;;60.88;36.22;;;;;;;16.27;86.75;101848.13;5025655;28;20029;-73
2022/09/05 06:49:21;;;;;;;58.25;36.55;;;;;;;16.43;86.70;101850.16;5025422;28;20029;-73
2022/09/05 06:52:22;;;;;;;57.30;37.10;;;;;;;16.63;86.47;101855.28;5025730;28;20036;-73
2022/09/05 06:55:06;;;;;;;58.30;36.20;;;;;;;16.83;85.33;101846.56;5025236;28;20567;-73
2022/09/05 06:57:53;;;;;;;58.03;36.70;;;;;;;17.04;84.72;101839.47;5025025;28;20099;-73
2022/09/05 07:00:37;;;;;;;53.13;35.10;;;;;;;17.26;83.57;101847.91;5025632;28;20033;-73
2022/09/05 07:03:18;;;;;;;56.25;36.72;;;;;;;17.50;83.24;101834.69;5024973;28;20028;-73
2022/09/05 07:06:10;;;;;;;61.20;35.95;;;;;;;17.65;82.27;101837.72;5025418;28;20064;-73
2022/09/05 07:08:50;;;;;;;48.28;32.13;;;;;;;17.84;79.76;101839.16;5025272;28;20053;-73
2022/09/05 07:11:24;;;;;;;48.67;32.10;;;;;;;18.00;78.49;101839.38;5024445;28;20036;-73
2022/09/05 07:14:00;;;;;;;48.42;31.63;;;;;;;18.13;78.39;101845.41;5025406;28;20120;-72
2022/09/05 07:16:38;;;;;;;50.13;32.67;;;;;;;18.26;77.04;101837.78;5025069;28;20504;-73
2022/09/05 07:19:25;;;;;;;42.15;31.60;;;;;;;18.38;76.31;101841.28;5024274;28;20056;-72
2022/09/05 07:22:12;;;;;;;45.90;31.52;;;;;;;18.49;76.39;101850.59;5024632;28;20488;-71
2022/09/05 07:24:43;;;;;;;45.58;31.08;;;;;;;18.60;74.98;101849.59;5024114;28;20052;-73
2022/09/05 07:27:10;;;;;;;45.65;30.75;;;;;;;18.71;75.00;101850.63;5023773;28;20068;-72
2022/09/05 07:29:43;;;;;;;45.42;30.80;;;;;;;18.77;75.87;101852.34;5024345;28;20025;-72
2022/09/05 07:32:16;;;;;;;45.92;30.30;;;;;;;18.90;73.43;101849.13;5024166;28;20037;-73
2022/09/05 07:34:45;;;;;;;48.72;30.08;;;;;;;19.01;72.41;101845.38;5021645;28;20400;-73
2022/09/05 07:37:20;;;;;;;44.10;29.20;;;;;;;19.11;72.21;101845.47;5024282;28;20399;-73
2022/09/05 07:39:52;;;;;;;47.65;30.60;;;;;;;19.23;72.06;101848.09;5024184;28;20167;-72
2022/09/05 07:42:24;;;;;;;44.92;29.48;;;;;;;19.32;71.10;101856.81;5023873;28;20052;-72
2022/09/05 07:44:55;;;;;;;47.22;29.95;;;;;;;19.43;69.15;101855.78;5024670;28;20072;-72
2022/09/05 07:47:33;;;;;;;44.30;27.92;;;;;;;19.55;70.52;101856.44;5024458;28;20029;-72
2022/09/05 07:50:08;;;;;;;47.95;30.23;;;;;;;19.67;68.88;101861.88;5024399;28;20053;-73
2022/09/05 07:52:39;;;;;;;50.53;29.50;;;;;;;19.88;66.51;101860.91;5024090;28;20691;-73
2022/09/05 07:55:34;;;;;;;49.08;29.77;;;;;;;20.03;67.66;101867.69;5023618;28;20392;-74
2022/09/05 07:58:06;;;;;;;43.15;29.08;;;;;;;20.09;67.72;101869.41;5023935;28;20029;-74
2022/09/05 08:00:33;;;;;;;50.88;28.17;;;;;;;20.34;63.98;101868.72;5024120;28;20261;-73
2022/09/05 08:03:07;;;;;;;40.07;28.27;;;;;;;20.45;65.88;101871.28;5024053;28;20028;-74
2022/09/05 08:05:45;;;;;;;41.08;26.92;;;;;;;20.55;67.32;101878.88;5023864;28;20014;-73
2022/09/05 08:08:17;;;;;;;43.05;27.08;;;;;;;20.64;66.51;101874.47;5023977;28;20041;-72
2022/09/05 08:11:08;;;;;;;46.97;27.85;;;;;;;20.80;64.45;101871.72;5022288;28;20033;-72
2022/09/05 08:13:42;;;;;;;41.90;25.70;;;;;;;21.00;63.05;101871.78;5024108;28;20037;-72
2022/09/05 08:16:12;;;;;;;38.00;24.30;;;;;;;21.15;64.60;101866.22;5023336;28;20051;-72
2022/09/05 08:18:53;;;;;;;34.17;19.05;;;;;;;21.31;61.38;101860.69;5022416;28;20067;-72
2022/09/05 08:21:24;;;;;;;35.22;20.08;;;;;;;21.50;61.22;101853.44;5021795;28;20377;-73
2022/09/05 08:23:57;;;;;;;32.70;20.33;;;;;;;21.56;64.23;101855.09;5023179;28;20030;-72
2022/09/05 08:26:41;;;;;;;28.45;17.13;;;;;;;21.84;60.24;101850.03;5022356;28;20043;-72
2022/09/05 08:29:34;;;;;;;30.05;16.90;;;;;;;21.95;60.21;101849.75;5000559;28;20820;-72
2022/09/05 08:32:12;;;;;;;30.60;16.95;;;;;;;22.14;58.00;101863.13;5015317;28;20029;-72
2022/09/05 08:34:50;;;;;;;27.70;15.23;;;;;;;22.36;57.80;101860.00;5018772;28;20068;-72
2022/09/05 08:37:20;;;;;;;27.63;16.23;;;;;;;22.53;57.63;101866.09;5014521;28;20036;-72
2022/09/05 08:39:50;;;;;;;28.67;16.70;;;;;;;22.70;57.89;101860.94;5022990;28;20496;-72
2022/09/05 08:42:36;;;;;;;36.60;19.48;;;;;;;22.82;58.05;101862.59;5020406;28;20377;-73
2022/09/05 08:45:20;;;;;;;40.13;17.88;;;;;;;23.04;56.54;101869.47;5016753;28;20112;-72
2022/09/05 08:48:06;;;;;;;30.52;16.17;;;;;;;23.24;55.81;101865.72;5020008;28;20029;-73
2022/09/05 08:50:50;;;;;;;26.23;14.27;;;;;;;23.41;56.51;101862.50;5018635;28;20032;-73
2022/09/05 08:53:57;;;;;;;24.02;13.38;;;;;;;23.65;55.64;101862.59;5021586;28;20030;-74
2022/09/05 08:56:36;;;;;;;28.90;13.13;;;;;;;24.04;51.57;101861.69;4983732;28;20073;-73
2022/09/05 08:59:30;;;;;;;25.98;12.55;;;;;;;25.12;51.59;101859.19;5021854;28;20391;-73
2022/09/05 09:02:30;;;;;;;21.60;11.18;;;;;;;27.66;44.48;101844.72;5013097;28;20044;-73
2022/09/05 09:05:05;;;;;;;17.00;9.90;;;;;;;29.64;38.24;101854.06;4971417;28;20033;-73
2022/09/05 09:07:35;;;;;;;17.10;8.90;;;;;;;30.63;36.46;101842.53;5017027;28;20741;-71
2022/09/05 09:10:16;;;;;;;20.38;8.68;;;;;;;31.68;36.44;101843.38;5021667;28;20053;-72
2022/09/05 09:13:00;;;;;;;15.85;8.23;;;;;;;33.14;31.51;101843.78;5017787;28;20029;-72
2022/09/05 09:15:50;;;;;;;13.90;7.40;;;;;;;34.14;28.70;101846.63;5011096;28;20034;-69
2022/09/05 09:18:20;;;;;;;13.60;7.10;;;;;;;34.50;28.15;101837.78;5022270;28;20041;-70
2022/09/05 09:21:20;;;;;;;17.65;6.85;;;;;;;34.89;28.65;101831.34;5019602;28;20034;-70
2022/09/05 09:24:24;;;;;;;16.40;6.90;;;;;;;35.76;30.99;101842.16;5015471;28;20163;-69
2022/09/05 09:27:04;;;;;;;16.48;6.45;;;;;;;36.49;28.63;101837.34;5016925;28;20037;-70
2022/09/05 09:29:35;;;;;;;12.95;6.18;;;;;;;36.68;24.11;101829.84;5020767;28;20061;-70
2022/09/05 09:32:04;;;;;;;14.75;5.80;;;;;;;36.95;24.89;101824.94;5021412;28;20121;-70
2022/09/05 09:34:36;;;;;;;12.13;5.43;;;;;;;37.29;24.38;101832.34;5019938;28;20116;-70
2022/09/05 09:37:22;;;;;;;9.27;4.72;;;;;;;37.82;26.00;101828.47;5019490;28;20496;-67
2022/09/05 09:39:54;;;;;;;9.18;4.35;;;;;;;38.04;22.79;101827.47;5019121;28;20022;-67
2022/09/05 09:42:34;;;;;;;9.95;4.45;;;;;;;38.00;24.55;101825.78;5014322;28;20435;-67
2022/09/05 09:45:07;;;;;;;9.60;3.55;;;;;;;38.85;22.73;101822.75;5020031;28;20033;-68
2022/09/05 09:47:51;;;;;;;9.15;4.30;;;;;;;38.31;21.89;101825.25;5020654;28;20029;-69
2022/09/05 09:50:55;;;;;;;8.27;3.65;;;;;;;37.94;23.62;101807.28;5021594;28;20554;-68
2022/09/05 09:53:48;;;;;;;9.10;3.80;;;;;;;38.44;22.32;101816.31;5019481;28;20045;-68
2022/09/05 09:56:21;;;;;;;6.85;2.90;;;;;;;38.46;20.79;101814.69;5022996;28;20586;-68
2022/09/05 09:59:14;;;;;;;9.80;2.90;;;;;;;38.73;21.63;101806.66;5015784;28;20384;-69
2022/09/05 10:02:23;;;;;;;6.55;2.65;;;;;;;39.30;23.16;101812.72;5027085;28;20543;-69
2022/09/05 10:04:57;;;;;;;7.82;3.20;;;;;;;39.67;20.74;101812.41;5026927;28;20468;-69
2022/09/05 10:07:54;;;;;;;10.10;2.85;;;;;;;39.77;20.38;101807.09;5017957;28;20061;-68
2022/09/05 10:10:45;;;;;;;;;;;;;;;40.65;23.21;101803.34;5026003;28;20058;-68
2022/09/05 10:13:40;;;;;;;9.48;2.85;;;;;;;40.92;19.91;101805.75;5026391;28;19924;-69
2022/09/05 10:16:27;;;;;;;9.35;2.95;;;;;;;41.08;18.73;101794.59;5026027;28;20045;-70
2022/09/05 10:19:26;;;;;;;6.63;2.45;;;;;;;41.38;17.51;101793.25;5027018;28;20017;-70
2022/09/05 10:22:18;;;;;;;7.07;2.50;;;;;;;41.55;19.36;101785.69;5014973;28;20485;-70
2022/09/05 10:25:07;;;;;;;8.27;2.83;;;;;;;41.38;19.12;101788.28;5024228;28;20026;-69
2022/09/05 10:28:06;;;;;;;8.77;2.40;;;;;;;41.03;18.41;101785.56;5021089;28;20041;-71
2022/09/05 10:30:42;;;;;;;8.65;2.40;;;;;;;40.67;17.06;101780.75;5025001;28;20044;-70
2022/09/05 10:33:26;;;;;;;6.70;2.28;;;;;;;41.08;18.13;101776.50;5025913;28;20034;-70
2022/09/05 10:36:00;;;;;;;7.38;2.33;;;;;;;40.93;17.60;101778.63;5026632;28;20450;-70
2022/09/05 10:38:37;;;;;;;5.95;2.65;;;;;;;40.68;17.92;101775.78;5025599;28;20404;-70
2022/09/05 10:41:08;;;;;;;;;;;;;;;41.92;19.69;101777.22;5023770;28;20029;-70
2022/09/05 10:43:49;;;;;;;4.80;1.92;;;;;;;40.85;16.59;101766.25;5024648;28;20016;-70
2022/09/05 10:46:34;;;;;;;6.00;2.30;;;;;;;41.46;17.77;101768.88;5022930;28;20388;-70
2022/09/05 10:49:06;;;;;;;5.13;2.38;;;;;;;41.47;16.96;101759.81;5025121;28;20017;-70
2022/09/05 10:51:47;;;;;;;5.60;1.92;;;;;;;41.93;17.35;101772.25;5025971;28;20100;-70
2022/09/05 10:54:34;;;;;;;5.53;2.10;;;;;;;42.39;15.47;101765.22;5025449;28;20395;-70
2022/09/05 10:57:05;;;;;;;7.15;1.90;;;;;;;41.70;16.19;101775.69;5024745;28;20415;-70
2022/09/05 10:59:52;;;;;;;7.50;1.85;;;;;;;42.64;15.73;101762.91;5021629;28;20669;-70
2022/09/05 11:02:23;;;;;;;8.38;2.00;;;;;;;42.55;16.14;101755.97;5025262;28;20747;-70
2022/09/05 11:04:54;;;;;;;7.72;2.00;;;;;;;42.01;15.34;101759.38;5026276;28;20028;-70
2022/09/05 11:07:35;;;;;;;5.95;1.90;;;;;;;41.27;16.57;101754.97;5026118;28;20052;-70
2022/09/05 11:10:09;;;;;;;4.90;1.95;;;;;;;40.60;15.92;101751.94;5023379;28;20048;-70
2022/09/05 11:12:56;;;;;;;6.45;2.10;;;;;;;40.76;17.63;101750.66;5024927;28;20036;-69
2022/09/05 11:15:48;;;;;;;3.78;1.67;;;;;;;41.12;16.80;101748.47;5025993;28;20388;-69
2022/09/05 11:18:21;;;;;;;5.00;1.90;;;;;;;40.96;17.18;101741.16;5025358;28;20032;-69
2022/09/05 11:20:53;;;;;;;5.38;1.90;;;;;;;41.31;15.71;101735.56;5023612;28;20508;-69
2022/09/05 11:23:29;;;;;;;5.28;1.90;;;;;;;40.80;17.45;101742.81;5026329;28;20033;-69
2022/09/05 11:26:00;;;;;;;4.10;1.70;;;;;;;40.51;16.15;101739.25;5023659;28;20029;-69
2022/09/05 11:28:57;;;;;;;3.75;1.70;;;;;;;40.99;18.48;101727.94;5025704;28;20041;-69
2022/09/05 11:31:33;;;;;;;4.07;1.85;;;;;;;39.40;18.03;101724.88;5022665;28;20652;-69
2022/09/05 11:34:39;;;;;;;5.60;1.83;;;;;;;37.80;19.91;101734.19;5023243;28;20122;-69
2022/09/05 11:37:29;;;;;;;4.53;2.07;;;;;;;35.73;20.50;101724.91;5012849;28;20068;-69
2022/09/05 11:40:32;;;;;;;3.85;1.70;;;;;;;34.69;22.52;101727.75;5020150;28;20288;-70
2022/09/05 11:43:38;;;;;;;5.07;1.70;;;;;;;33.88;23.16;101724.56;4983980;28;20480;-69
2022/09/05 11:46:41;;;;;;;4.70;1.70;;;;;;;33.61;24.49;101724.31;5022260;28;20059;-69
2022/09/05 11:49:41;;;;;;;5.65;1.95;;;;;;;33.04;25.00;101734.91;5025091;28;20059;-69
2022/09/05 11:52:51;;;;;;;4.57;1.80;;;;;;;32.96;25.13;101718.84;5022605;28;20048;-69
2022/09/05 11:55:31;;;;;;;3.92;2.10;;;;;;;33.13;24.74;101726.22;5022833;28;20030;-69
2022/09/05 11:58:23;;;;;;;4.03;1.95;;;;;;;33.13;24.66;101728.25;5024682;28;20037;-69
2022/09/05 12:00:56;;;;;;;3.55;1.75;;;;;;;32.81;24.91;101728.13;5025294;28;20113;-69
2022/09/05 12:03:40;;;;;;;4.43;1.83;;;;;;;33.07;26.03;101722.00;5023635;28;20485;-70
2022/09/05 12:06:26;;;;;;;4.88;1.75;;;;;;;33.30;26.12;101725.06;5011002;28;20519;-69
2022/09/05 12:08:57;;;;;;;4.50;1.70;;;;;;;33.23;24.95;101717.16;5012122;28;20065;-70
2022/09/05 12:11:38;;;;;;;5.82;2.08;;;;;;;33.26;25.56;101718.47;5007974;28;20554;-70
2022/09/05 12:14:21;;;;;;;4.70;2.03;;;;;;;33.47;24.74;101718.22;5022705;28;20036;-69
2022/09/05 12:17:03;;;;;;;2.80;1.60;;;;;;;33.22;24.75;101717.53;5019678;28;20108;-70
2022/09/05 12:19:53;;;;;;;5.82;2.00;;;;;;;33.14;25.70;101713.63;5023855;28;20488;-70
2022/09/05 12:22:42;;;;;;;6.65;2.10;;;;;;;33.41;25.67;101702.59;5010914;28;20034;-70
2022/09/05 12:25:17;;;;;;;4.95;2.10;;;;;;;33.42;25.34;101690.84;5016866;28;20118;-70
2022/09/05 12:27:47;;;;;;;7.65;1.90;;;;;;;33.38;26.54;101709.81;5015618;28;20032;-70
2022/09/05 12:30:21;;;;;;;4.03;2.03;;;;;;;33.41;24.44;101702.59;5007344;28;20028;-70